createdAt,value
2017-10-12T00:00:16.375Z,97373.39
2017-10-12T00:02:43.833Z,97371.72
2017-10-12T00:05:11.327Z,97372.66
2017-10-12T00:07:38.800Z,97370.44
2017-10-12T00:10:06.227Z,97361.98
2017-10-12T00:12:33.699Z,97367.38
2017-10-12T00:15:01.759Z,97369.80
2017-10-12T00:17:29.164Z,97365.03
2017-10-12T00:19:56.572Z,97360.52
2017-10-12T00:22:24.119Z,97359.80
2017-10-12T00:24:51.528Z,97361.17
2017-10-12T00:27:18.936Z,97364.21
2017-10-12T00:29:46.729Z,97362.94
2017-10-12T00:32:14.183Z,97358.64
2017-10-12T00:34:41.598Z,97366.75
2017-10-12T00:37:09.050Z,97366.75
2017-10-12T00:39:37.130Z,97369.80
2017-10-12T00:42:05.452Z,97368.84
2017-10-12T00:44:33.501Z,97368.75
2017-10-12T00:47:00.921Z,97368.84
2017-10-12T00:49:28.326Z,97373.27
2017-10-12T00:51:55.854Z,97369.80
2017-10-12T00:54:23.324Z,97371.72
2017-10-12T00:56:50.847Z,97367.48
2017-10-12T00:59:18.638Z,97365.68
2017-10-12T01:01:46.062Z,97359.67
2017-10-12T01:04:13.465Z,97358.30
2017-10-12T01:06:41.116Z,97367.60
2017-10-12T01:09:08.523Z,97367.30
2017-10-12T01:11:35.935Z,97364.95
2017-10-12T01:14:03.905Z,97361.17
2017-10-12T01:16:31.311Z,97359.47
2017-10-12T01:18:58.736Z,97363.91
2017-10-12T01:21:26.205Z,97357.88
2017-10-12T01:23:53.685Z,97357.88
2017-10-12T01:26:21.114Z,97368.42
2017-10-12T01:28:48.571Z,97370.34
2017-10-12T01:31:15.979Z,97373.30
2017-10-12T01:33:43.449Z,97372.53
2017-10-12T01:36:10.921Z,97378.58
2017-10-12T01:38:38.335Z,97380.77
2017-10-12T01:41:05.842Z,97383.64
2017-10-12T01:43:33.319Z,97378.58
2017-10-12T01:46:00.737Z,97379.09
2017-10-12T01:51:39.414Z,97376.66
2017-10-12T01:54:06.953Z,97374.34
2017-10-12T01:56:34.457Z,97372.14
2017-10-12T01:59:01.871Z,97381.32
2017-10-12T02:01:29.315Z,97378.15
2017-10-12T02:03:56.718Z,97385.44
2017-10-12T02:06:24.126Z,97387.75
2017-10-12T02:08:51.584Z,97390.50
2017-10-12T02:11:18.995Z,97385.86
2017-10-12T02:13:47.040Z,97398.85
2017-10-12T02:16:14.497Z,97384.41
2017-10-12T02:18:41.908Z,97387.80
2017-10-12T02:21:09.366Z,97389.25
2017-10-12T02:23:36.827Z,97392.52
2017-10-12T02:26:04.239Z,97393.03
2017-10-12T02:28:31.747Z,97401.05
2017-10-12T02:30:59.392Z,97388.27
2017-10-12T02:33:26.818Z,97387.45
2017-10-12T02:35:54.380Z,97386.17
2017-10-12T02:38:21.830Z,97387.88
2017-10-12T02:40:49.248Z,97383.43
2017-10-12T02:43:16.682Z,97385.53
2017-10-12T02:45:44.147Z,97384.06
2017-10-12T02:48:11.560Z,97382.39
2017-10-12T02:50:39.024Z,97381.11
2017-10-12T02:53:06.539Z,97380.30
2017-10-12T02:55:34.049Z,97385.53
2017-10-12T02:58:01.479Z,97378.67
2017-10-12T03:00:28.932Z,97385.66
2017-10-12T03:02:56.352Z,97387.97
2017-10-12T03:05:23.776Z,97394.83
2017-10-12T03:07:51.237Z,97397.58
2017-10-12T03:10:18.651Z,97402.24
2017-10-12T03:12:46.055Z,97407.60
2017-10-12T03:15:13.508Z,97410.98
2017-10-12T03:17:40.947Z,97410.86
2017-10-12T03:20:08.353Z,97414.59
2017-10-12T03:22:36.293Z,97418.15
2017-10-12T03:25:03.740Z,97419.43
2017-10-12T03:27:31.151Z,97423.77
2017-10-12T03:29:58.620Z,97427.33
2017-10-12T03:32:26.027Z,97429.67
2017-10-12T03:34:53.435Z,97442.02
2017-10-12T03:37:20.879Z,97451.72
2017-10-12T03:39:48.298Z,97452.14
2017-10-12T03:42:15.776Z,97452.23
2017-10-12T03:44:43.231Z,97444.22
2017-10-12T03:47:10.758Z,97447.26
2017-10-12T03:49:38.178Z,97448.88
2017-10-12T03:52:05.625Z,97438.85
2017-10-12T03:54:33.044Z,97441.17
2017-10-12T03:57:00.467Z,97450.34
2017-10-12T03:59:27.906Z,97439.80
2017-10-12T04:01:55.323Z,97444.34
2017-10-12T04:04:22.793Z,97439.80
2017-10-12T04:06:50.240Z,97434.86
2017-10-12T04:09:17.692Z,97432.81
2017-10-12T04:11:45.100Z,97434.73
2017-10-12T04:14:13.149Z,97440.09
2017-10-12T04:16:40.559Z,97433.37
2017-10-12T04:19:08.019Z,97434.86
2017-10-12T04:21:35.473Z,97441.17
2017-10-12T04:24:02.889Z,97434.73
2017-10-12T04:26:30.368Z,97433.06
2017-10-12T04:28:58.137Z,97432.64
2017-10-12T04:31:25.567Z,97435.51
2017-10-12T04:33:52.972Z,97435.81
2017-10-12T04:36:20.809Z,97435.69
2017-10-12T04:38:48.214Z,97431.14
2017-10-12T04:41:15.627Z,97438.00
2017-10-12T04:43:43.082Z,97430.96
2017-10-12T04:46:10.569Z,97434.95
2017-10-12T04:48:37.980Z,97428.00
2017-10-12T04:51:05.449Z,97440.14
2017-10-12T04:53:32.867Z,97437.61
2017-10-12T04:56:00.338Z,97451.54
2017-10-12T04:58:27.800Z,97455.53
2017-10-12T05:00:55.216Z,97455.66
2017-10-12T05:03:22.618Z,97463.03
2017-10-12T05:05:50.414Z,97463.45
2017-10-12T05:08:17.962Z,97461.23
2017-10-12T05:10:45.388Z,97459.86
2017-10-12T05:13:13.195Z,97471.91
2017-10-12T05:15:40.637Z,97474.00
2017-10-12T05:18:08.113Z,97472.42
2017-10-12T05:20:35.564Z,97477.14
2017-10-12T05:23:02.980Z,97487.05
2017-10-12T05:25:30.396Z,97479.23
2017-10-12T05:27:58.322Z,97487.90
2017-10-12T05:30:25.877Z,97481.68
2017-10-12T05:32:53.302Z,97488.41
2017-10-12T05:35:20.982Z,97490.64
2017-10-12T05:37:49.299Z,97493.08
2017-10-12T05:40:16.723Z,97499.09
2017-10-12T05:42:44.502Z,97499.39
2017-10-12T05:45:11.925Z,97503.41
2017-10-12T05:47:39.339Z,97502.69
2017-10-12T05:50:06.839Z,97503.84
2017-10-12T05:52:34.268Z,97513.75
2017-10-12T05:55:01.732Z,97521.85
2017-10-12T05:57:30.260Z,97527.98
2017-10-12T05:59:57.686Z,97535.27
2017-10-12T06:02:25.105Z,97533.77
2017-10-12T06:04:52.549Z,97538.95
2017-10-12T06:07:20.029Z,97551.52
2017-10-12T06:09:47.438Z,97550.64
2017-10-12T06:12:14.903Z,97552.66
2017-10-12T06:14:42.311Z,97557.59
2017-10-12T06:17:09.807Z,97549.02
2017-10-12T06:19:37.269Z,97556.27
2017-10-12T06:22:04.696Z,97548.38
2017-10-12T06:24:32.163Z,97545.09
2017-10-12T06:26:59.636Z,97556.27
2017-10-12T06:29:27.060Z,97555.84
2017-10-12T06:31:54.487Z,97555.72
2017-10-12T06:34:22.003Z,97559.02
2017-10-12T06:36:49.482Z,97561.13
2017-10-12T06:39:17.017Z,97562.28
2017-10-12T06:41:44.499Z,97568.38
2017-10-12T06:44:12.073Z,97570.51
2017-10-12T06:46:39.498Z,97572.92
2017-10-12T06:49:07.277Z,97577.98
2017-10-12T06:51:34.810Z,97579.05
2017-10-12T06:54:02.286Z,97585.56
2017-10-12T06:56:29.791Z,97600.23
2017-10-12T06:58:57.271Z,97596.63
2017-10-12T07:01:24.743Z,97610.27
2017-10-12T07:03:52.620Z,97613.31
2017-10-12T07:06:20.645Z,97617.22
2017-10-12T07:08:48.120Z,97616.79
2017-10-12T07:11:15.638Z,97620.91
2017-10-12T07:13:43.193Z,97628.89
2017-10-12T07:16:10.657Z,97624.47
2017-10-12T07:18:38.562Z,97644.78
2017-10-12T07:21:06.012Z,97645.42
2017-10-12T07:23:33.442Z,97638.98
2017-10-12T07:26:00.894Z,97651.33
2017-10-12T07:28:28.321Z,97659.02
2017-10-12T07:30:55.774Z,97660.70
2017-10-12T07:33:23.307Z,97663.31
2017-10-12T07:35:50.766Z,97667.64
2017-10-12T07:38:18.181Z,97662.16
2017-10-12T07:40:45.997Z,97660.66
2017-10-12T07:43:13.463Z,97664.36
2017-10-12T07:45:41.861Z,97668.16
2017-10-12T07:48:09.367Z,97678.93
2017-10-12T07:50:36.843Z,97682.92
2017-10-12T07:53:04.261Z,97693.08
2017-10-12T07:55:31.770Z,97697.59
2017-10-12T07:57:59.198Z,97701.07
2017-10-12T08:00:26.635Z,97710.16
2017-10-12T08:02:54.139Z,97713.20
2017-10-12T08:05:21.690Z,97711.72
2017-10-12T08:07:49.111Z,97709.83
2017-10-12T08:10:16.735Z,97705.70
2017-10-12T08:12:44.743Z,97712.69
2017-10-12T08:15:12.169Z,97710.55
2017-10-12T08:17:40.011Z,97714.55
2017-10-12T08:20:07.467Z,97716.78
2017-10-12T08:22:34.949Z,97725.96
2017-10-12T08:25:02.409Z,97723.77
2017-10-12T08:27:30.092Z,97736.55
2017-10-12T08:29:57.526Z,97733.77
2017-10-12T08:32:25.651Z,97747.16
2017-10-12T08:34:53.114Z,97744.34
2017-10-12T08:37:20.609Z,97747.30
2017-10-12T08:39:48.454Z,97751.52
2017-10-12T08:42:15.886Z,97748.34
2017-10-12T08:44:43.301Z,97747.70
2017-10-12T08:47:10.769Z,97752.89
2017-10-12T08:49:38.291Z,97751.39
2017-10-12T08:52:05.766Z,97751.61
2017-10-12T08:54:34.197Z,97756.70
2017-10-12T08:57:01.611Z,97768.07
2017-10-12T08:59:29.019Z,97765.55
2017-10-12T09:01:56.465Z,97765.88
2017-10-12T09:04:23.872Z,97771.98
2017-10-12T09:06:51.311Z,97770.18
2017-10-12T09:09:18.767Z,97770.81
2017-10-12T09:11:46.182Z,97776.95
2017-10-12T09:14:13.594Z,97778.66
2017-10-12T09:16:41.436Z,97777.78
2017-10-12T09:19:08.885Z,97782.23
2017-10-12T09:21:36.335Z,97776.66
2017-10-12T09:24:03.859Z,97776.53
2017-10-12T09:26:31.271Z,97773.17
2017-10-12T09:29:00.652Z,97773.78
2017-10-12T09:31:28.428Z,97773.78
2017-10-12T09:33:55.858Z,97778.33
2017-10-12T09:36:23.272Z,97776.66
2017-10-12T09:38:50.922Z,97786.65
2017-10-12T09:41:18.340Z,97782.44
2017-10-12T09:43:45.769Z,97784.98
2017-10-12T09:46:13.562Z,97793.64
2017-10-12T09:48:41.074Z,97788.58
2017-10-12T09:51:08.489Z,97790.67
2017-10-12T09:53:36.013Z,97795.52
2017-10-12T09:56:03.429Z,97799.73
2017-10-12T09:58:30.994Z,97795.96
2017-10-12T10:00:58.894Z,97805.36
2017-10-12T10:03:26.363Z,97817.58
2017-10-12T10:05:53.789Z,97808.22
2017-10-12T10:08:21.546Z,97816.13
2017-10-12T10:10:48.970Z,97815.08
2017-10-12T10:13:16.403Z,97815.60
2017-10-12T10:15:44.590Z,97815.27
2017-10-12T10:18:12.005Z,97810.63
2017-10-12T10:20:39.454Z,97808.95
2017-10-12T10:23:07.443Z,97811.70
2017-10-12T10:25:34.851Z,97806.30
2017-10-12T10:28:02.254Z,97798.30
2017-10-12T10:30:29.713Z,97801.97
2017-10-12T10:32:57.762Z,97794.38
2017-10-12T10:35:25.200Z,97797.85
2017-10-12T10:37:53.139Z,97787.91
2017-10-12T10:40:20.564Z,97788.86
2017-10-12T10:42:47.968Z,97793.19
2017-10-12T10:45:15.429Z,97791.39
2017-10-12T10:47:42.837Z,97783.28
2017-10-12T10:50:10.264Z,97781.14
2017-10-12T10:52:37.870Z,97782.73
2017-10-12T10:55:06.032Z,97778.80
2017-10-12T10:57:33.456Z,97780.30
2017-10-12T11:00:01.124Z,97781.03
2017-10-12T11:02:28.543Z,97775.63
2017-10-12T11:04:55.966Z,97778.68
2017-10-12T11:07:23.842Z,97765.28
2017-10-12T11:09:51.257Z,97766.96
2017-10-12T11:12:18.749Z,97770.99
2017-10-12T11:14:46.532Z,97762.76
2017-10-12T11:17:13.945Z,97766.14
2017-10-12T11:19:41.371Z,97768.25
2017-10-12T11:22:09.005Z,97764.16
2017-10-12T11:24:40.305Z,97758.33
2017-10-12T11:27:07.724Z,97763.09
2017-10-12T11:29:35.243Z,97760.44
2017-10-12T11:32:02.778Z,97764.06
2017-10-12T11:34:30.271Z,97766.99
2017-10-12T11:36:57.716Z,97759.61
2017-10-12T11:39:25.137Z,97751.56
2017-10-12T11:41:52.562Z,97748.30
2017-10-12T11:44:20.093Z,97753.23
2017-10-12T11:46:47.494Z,97751.16
2017-10-12T11:49:14.915Z,97755.80
2017-10-12T11:51:42.460Z,97754.70
2017-10-12T11:54:09.876Z,97745.19
2017-10-12T11:56:37.282Z,97747.41
2017-10-12T11:59:04.798Z,97741.70
2017-10-12T12:01:32.254Z,97738.63
2017-10-12T12:03:59.690Z,97740.55
2017-10-12T12:06:27.490Z,97735.58
2017-10-12T12:08:54.896Z,97736.09
2017-10-12T12:11:22.311Z,97730.73
2017-10-12T12:13:49.774Z,97730.82
2017-10-12T12:16:17.266Z,97730.18
2017-10-12T12:18:44.680Z,97728.50
2017-10-12T12:21:12.203Z,97726.39
